Time;durP1;ratioP1;P1;durP2;ratioP2;P2;SDS_P1;SDS_P2;PMS_P1;PMS_P2;Temp;Humidity;BMP_temperature;BMP_pressure;BME280_temperature;BME280_humidity;BME280_pressure;Samples;Min_cycle;Max_cycle;Signal;HPM_P1;HPM_P2
2024/02/09 00:01:20;;;;;;;13.57;12.37;;;10.20;99.90;;;;;;5083610;28;20202;-78
2024/02/09 00:03:47;;;;;;;14.33;12.93;;;10.20;99.90;;;;;;5073489;28;20219;-78
2024/02/09 00:06:14;;;;;;;12.63;11.70;;;10.20;99.90;;;;;;5086627;28;20204;-78
2024/02/09 00:08:41;;;;;;;12.97;11.97;;;10.30;99.90;;;;;;5081247;28;20218;-78
2024/02/09 00:11:11;;;;;;;13.40;12.10;;;10.20;99.90;;;;;;5087305;28;20210;-78
2024/02/09 00:13:42;;;;;;;12.90;12.00;;;10.30;99.90;;;;;;5080686;28;20310;-78
2024/02/09 00:16:09;;;;;;;14.23;12.83;;;10.30;99.90;;;;;;5082171;28;20253;-78
2024/02/09 00:18:36;;;;;;;13.73;12.53;;;10.30;99.90;;;;;;5081574;28;20244;-78
2024/02/09 00:21:03;;;;;;;11.80;11.00;;;10.30;99.90;;;;;;5079388;28;20241;-78
2024/02/09 00:23:32;;;;;;;12.97;11.77;;;10.40;99.90;;;;;;5085386;28;20227;-78
2024/02/09 00:26:00;;;;;;;11.43;10.43;;;10.40;99.90;;;;;;5081461;28;20195;-78
2024/02/09 00:28:27;;;;;;;14.27;11.60;;;10.40;99.90;;;;;;5086990;28;20206;-78
2024/02/09 00:30:55;;;;;;;12.90;11.63;;;10.40;99.90;;;;;;5082081;28;20197;-78
2024/02/09 00:33:22;;;;;;;11.87;10.80;;;10.40;99.90;;;;;;5078279;28;20227;-78
2024/02/09 00:35:49;;;;;;;12.33;11.30;;;10.40;99.90;;;;;;5084434;28;20672;-78
2024/02/09 00:38:16;;;;;;;12.07;10.80;;;10.50;99.90;;;;;;5079530;28;20199;-78
2024/02/09 00:40:42;;;;;;;12.47;11.33;;;10.50;99.90;;;;;;5087204;28;20290;-78
2024/02/09 00:43:13;;;;;;;12.30;11.03;;;10.50;99.90;;;;;;5081370;28;20243;-78
2024/02/09 00:45:40;;;;;;;11.93;10.90;;;10.50;99.90;;;;;;5087836;28;20613;-78
2024/02/09 00:48:09;;;;;;;12.53;11.37;;;10.50;99.90;;;;;;5074511;28;20649;-78
2024/02/09 00:50:36;;;;;;;12.50;11.40;;;10.50;99.90;;;;;;5083377;28;20276;-78
2024/02/09 00:53:04;;;;;;;14.07;12.20;;;10.50;99.90;;;;;;5091505;28;20224;-78
2024/02/09 00:55:31;;;;;;;13.87;12.57;;;10.50;99.90;;;;;;5082442;28;20290;-78
2024/02/09 00:57:58;;;;;;;13.17;11.97;;;10.40;99.90;;;;;;5091846;28;20599;-78
2024/02/09 01:00:26;;;;;;;12.30;11.23;;;10.40;99.90;;;;;;5083804;28;20580;-78
2024/02/09 01:02:52;;;;;;;12.67;11.60;;;10.40;99.90;;;;;;5093879;28;20272;-78
2024/02/09 01:05:21;;;;;;;12.23;11.23;;;10.40;99.90;;;;;;5084975;28;20188;-78
2024/02/09 01:07:50;;;;;;;12.17;11.00;;;10.30;99.90;;;;;;5084137;28;20214;-78
2024/02/09 01:10:17;;;;;;;11.77;10.90;;;10.30;99.90;;;;;;5085999;28;20215;-78
2024/02/09 02:46:13;;;;;;;6.80;6.20;;;10.20;99.90;;;;;;5078075;28;20723;-78
2024/02/09 03:05:14;;;;;;;5.57;5.13;;;10.10;99.90;;;;;;5079728;28;20207;-78
2024/02/09 03:07:42;;;;;;;7.30;5.97;;;10.10;99.90;;;;;;5086229;28;20209;-78
2024/02/09 03:10:09;;;;;;;6.70;6.10;;;10.10;99.90;;;;;;5086405;28;20222;-78
2024/02/09 03:12:38;;;;;;;6.60;6.10;;;10.10;99.90;;;;;;5085282;28;20224;-78
2024/02/09 03:15:09;;;;;;;7.40;6.57;;;10.10;99.90;;;;;;5077414;28;20208;-78
2024/02/09 03:17:37;;;;;;;8.10;7.37;;;10.10;99.90;;;;;;5078397;28;20197;-78
2024/02/09 03:20:05;;;;;;;7.10;6.43;;;10.00;99.90;;;;;;5082546;28;20651;-77
2024/02/09 03:22:32;;;;;;;7.33;6.63;;;10.00;99.90;;;;;;5087840;28;20225;-77
2024/02/09 03:25:01;;;;;;;7.97;6.70;;;10.00;99.90;;;;;;5083330;28;20257;-78
2024/02/09 03:27:29;;;;;;;7.80;6.90;;;10.00;99.90;;;;;;5089740;28;20300;-77
2024/02/09 03:29:56;;;;;;;7.67;6.93;;;10.00;99.90;;;;;;5079071;28;20299;-78
2024/02/09 03:32:25;;;;;;;7.20;6.50;;;10.00;99.90;;;;;;5070802;28;20231;-78
2024/02/09 03:34:51;;;;;;;7.13;6.63;;;10.00;99.90;;;;;;5085052;28;20195;-77
2024/02/09 03:37:22;;;;;;;6.37;5.80;;;10.00;99.90;;;;;;5078856;28;20194;-78
2024/02/09 03:39:49;;;;;;;7.37;6.77;;;10.00;99.90;;;;;;5084267;28;20200;-77
2024/02/09 03:42:16;;;;;;;6.73;6.23;;;10.00;99.90;;;;;;5079304;28;20203;-77
2024/02/09 03:44:44;;;;;;;7.13;6.53;;;10.00;99.90;;;;;;5081930;28;20194;-78
2024/02/09 03:47:11;;;;;;;8.03;7.30;;;10.00;99.90;;;;;;5083729;28;20726;-77
2024/02/09 03:49:39;;;;;;;7.97;7.17;;;10.00;99.90;;;;;;5081522;28;20239;-80
2024/02/09 03:52:07;;;;;;;7.53;6.80;;;9.90;99.90;;;;;;5085318;28;20245;-77
2024/02/09 03:54:34;;;;;;;8.37;7.50;;;10.00;99.90;;;;;;5073629;28;20210;-77
2024/02/09 03:57:02;;;;;;;8.10;7.30;;;10.00;99.90;;;;;;5084935;28;20201;-78
2024/02/09 03:59:29;;;;;;;8.30;7.40;;;10.00;99.90;;;;;;5074330;28;20191;-81
2024/02/09 04:01:56;;;;;;;7.30;6.80;;;10.00;99.90;;;;;;5081751;28;20636;-78
2024/02/09 04:04:23;;;;;;;7.43;6.73;;;10.00;99.90;;;;;;5076530;28;20719;-78
2024/02/09 04:06:51;;;;;;;6.77;6.20;;;10.00;99.90;;;;;;5081681;28;20203;-77
2024/02/09 04:09:18;;;;;;;7.87;6.73;;;10.00;99.90;;;;;;5086827;28;20194;-78
2024/02/09 04:11:44;;;;;;;5.80;5.30;;;10.00;99.90;;;;;;5082844;28;20669;-78
2024/02/09 04:14:11;;;;;;;6.80;6.30;;;10.00;99.90;;;;;;5079273;28;20210;-76
2024/02/09 04:16:49;;;;;;;6.80;6.30;;;10.00;99.90;;;;;;5080586;28;20218;-79
2024/02/09 04:19:24;;;;;;;6.80;6.23;;;10.00;99.90;;;;;;5075826;28;20197;-78
2024/02/09 04:21:52;;;;;;;6.23;5.83;;;10.00;99.90;;;;;;5081140;28;20266;-77
2024/02/09 04:24:23;;;;;;;6.80;6.20;;;10.00;99.90;;;;;;5078497;28;20594;-78
2024/02/09 04:26:51;;;;;;;5.90;5.50;;;9.90;99.90;;;;;;5082499;28;20198;-76
2024/02/09 04:29:18;;;;;;;6.57;5.97;;;10.00;99.90;;;;;;5079305;28;20301;-78
2024/02/09 04:31:45;;;;;;;6.10;5.70;;;10.00;99.90;;;;;;5075738;28;20203;-79
2024/02/09 04:34:12;;;;;;;5.80;5.30;;;10.00;99.90;;;;;;5084231;28;20218;-77
2024/02/09 04:36:39;;;;;;;6.27;5.80;;;10.10;99.90;;;;;;5074817;28;20741;-77
2024/02/09 04:39:10;;;;;;;5.87;5.47;;;10.10;99.90;;;;;;5083673;28;20632;-77
2024/02/09 04:41:37;;;;;;;6.03;5.63;;;10.10;99.90;;;;;;5080900;28;20288;-77
2024/02/09 04:44:04;;;;;;;6.17;5.77;;;10.10;99.90;;;;;;5087355;28;20208;-77
2024/02/09 04:46:32;;;;;;;6.00;5.50;;;10.10;99.90;;;;;;5079222;28;20255;-77
2024/02/09 04:48:59;;;;;;;5.47;5.10;;;10.10;99.90;;;;;;5077960;28;20198;-77
2024/02/09 04:51:26;;;;;;;5.97;5.57;;;10.10;99.90;;;;;;5086265;28;20259;-77
2024/02/09 04:53:53;;;;;;;6.10;5.60;;;10.10;99.90;;;;;;5073784;28;20226;-76
2024/02/09 04:56:29;;;;;;;6.50;6.00;;;10.10;99.90;;;;;;5083202;28;20231;-77
2024/02/09 04:58:56;;;;;;;6.33;5.93;;;10.10;99.90;;;;;;5077357;28;20205;-76
2024/02/09 05:01:29;;;;;;;6.40;5.90;;;10.10;99.90;;;;;;5091883;28;20241;-77
2024/02/09 05:03:57;;;;;;;6.70;6.20;;;10.10;99.90;;;;;;5076463;28;20216;-76
2024/02/09 05:06:24;;;;;;;6.20;5.70;;;10.10;99.90;;;;;;5081165;28;20680;-77
2024/02/09 05:08:52;;;;;;;5.80;5.40;;;10.10;99.90;;;;;;5085279;28;20203;-77
2024/02/09 05:11:21;;;;;;;5.80;5.40;;;10.10;99.90;;;;;;5080382;28;20214;-76
2024/02/09 05:13:49;;;;;;;6.30;5.80;;;10.10;99.90;;;;;;5090646;28;20751;-77
2024/02/09 05:16:17;;;;;;;6.23;5.73;;;10.10;99.90;;;;;;5080256;28;20610;-77
2024/02/09 05:18:44;;;;;;;6.67;6.17;;;10.20;99.90;;;;;;5084720;28;20673;-77
2024/02/09 05:21:11;;;;;;;7.33;6.63;;;10.20;99.90;;;;;;5071245;28;20223;-77
2024/02/09 05:23:38;;;;;;;6.17;5.77;;;10.20;99.90;;;;;;5083271;28;20771;-77
2024/02/09 05:26:07;;;;;;;5.60;5.30;;;10.20;99.90;;;;;;5082234;28;20187;-77
2024/02/09 05:28:38;;;;;;;5.73;5.40;;;10.30;99.90;;;;;;5089809;28;20230;-77
2024/02/09 05:31:06;;;;;;;5.80;5.50;;;10.30;99.90;;;;;;5078902;28;20214;-76
2024/02/09 05:33:35;;;;;;;5.80;5.50;;;10.30;99.90;;;;;;5083030;28;20637;-77
2024/02/09 05:36:02;;;;;;;5.70;5.30;;;10.30;99.90;;;;;;5081751;28;20206;-76
2024/02/09 05:38:30;;;;;;;5.67;5.33;;;10.30;99.90;;;;;;5090488;28;20232;-77
2024/02/09 05:40:57;;;;;;;5.87;5.47;;;10.30;99.90;;;;;;5087525;28;20197;-77
2024/02/09 05:43:24;;;;;;;4.90;4.70;;;10.30;99.90;;;;;;5087329;28;20211;-77
2024/02/09 05:45:51;;;;;;;5.40;4.90;;;10.30;99.90;;;;;;5088934;28;20196;-77
2024/02/09 05:48:19;;;;;;;4.73;4.43;;;10.40;99.90;;;;;;5088249;28;20203;-77
2024/02/09 05:50:45;;;;;;;5.30;5.00;;;10.40;99.90;;;;;;5080501;28;20219;-76
2024/02/09 05:53:12;;;;;;;5.50;5.20;;;10.40;99.90;;;;;;5093688;28;20740;-76
2024/02/09 05:55:40;;;;;;;5.40;5.10;;;10.40;99.90;;;;;;5074482;28;20199;-76
2024/02/09 05:58:07;;;;;;;5.60;5.30;;;10.40;99.90;;;;;;5088316;28;20198;-77
2024/02/09 06:00:34;;;;;;;5.90;5.30;;;10.40;99.90;;;;;;5082904;28;20200;-77
2024/02/09 06:03:02;;;;;;;5.87;5.47;;;10.50;99.90;;;;;;5080957;28;20262;-76
2024/02/09 06:05:32;;;;;;;6.20;5.80;;;10.50;99.90;;;;;;5085383;28;20198;-77
2024/02/09 06:08:00;;;;;;;5.60;5.30;;;10.50;99.90;;;;;;5087846;28;20668;-77
2024/02/09 06:10:27;;;;;;;5.60;5.30;;;10.50;99.90;;;;;;5081005;28;20208;-77
2024/02/09 06:12:54;;;;;;;5.80;5.40;;;10.40;99.90;;;;;;5083276;28;20218;-77
2024/02/09 06:15:21;;;;;;;5.80;5.30;;;10.50;99.90;;;;;;5086676;28;20662;-77
2024/02/09 06:17:48;;;;;;;6.00;5.60;;;10.50;99.90;;;;;;5087583;28;20612;-77
2024/02/09 06:20:22;;;;;;;6.40;5.80;;;10.50;99.90;;;;;;5078268;28;20259;-77
2024/02/09 06:22:50;;;;;;;5.50;5.20;;;10.50;99.90;;;;;;5084571;28;20719;-77
2024/02/09 06:25:17;;;;;;;5.70;5.30;;;10.50;99.90;;;;;;5075113;28;20288;-77
2024/02/09 06:27:45;;;;;;;5.70;5.20;;;10.60;99.90;;;;;;5087449;28;20198;-77
2024/02/09 06:30:13;;;;;;;5.20;4.90;;;10.60;99.90;;;;;;5091707;28;20214;-77
2024/02/09 06:32:39;;;;;;;5.20;4.90;;;10.60;99.90;;;;;;5083537;28;20227;-77
2024/02/09 06:35:07;;;;;;;4.73;4.43;;;10.60;99.90;;;;;;5089243;28;20203;-76
2024/02/09 06:37:34;;;;;;;5.70;5.30;;;10.60;99.90;;;;;;5085254;28;20431;-77
2024/02/09 06:40:03;;;;;;;5.87;5.47;;;10.60;99.90;;;;;;5088755;28;20713;-77
2024/02/09 06:42:29;;;;;;;5.90;5.40;;;10.60;99.90;;;;;;5086903;28;20207;-76
2024/02/09 06:44:56;;;;;;;5.80;5.40;;;10.70;99.90;;;;;;5081782;28;20195;-77
2024/02/09 06:47:24;;;;;;;6.23;5.73;;;10.70;99.90;;;;;;5092467;28;20245;-77
2024/02/09 06:49:51;;;;;;;6.03;5.63;;;10.70;99.90;;;;;;5091350;28;20253;-77
2024/02/09 06:52:18;;;;;;;7.70;5.40;;;10.80;99.90;;;;;;5079187;28;20222;-77
2024/02/09 06:54:47;;;;;;;5.50;5.10;;;10.80;99.90;;;;;;5084380;28;20193;-77
2024/02/09 06:57:15;;;;;;;5.80;5.40;;;10.80;99.90;;;;;;5083353;28;20641;-77
2024/02/09 06:59:46;;;;;;;6.10;5.70;;;10.80;99.90;;;;;;5086753;28;20196;-77
2024/02/09 07:02:13;;;;;;;5.53;5.13;;;10.90;99.90;;;;;;5090301;28;20278;-77
2024/02/09 07:04:41;;;;;;;5.90;5.50;;;10.90;99.90;;;;;;5082698;28;20663;-77
2024/02/09 07:07:08;;;;;;;6.20;5.70;;;11.00;99.90;;;;;;5087242;28;20618;-77
2024/02/09 07:09:36;;;;;;;5.40;5.00;;;11.00;99.90;;;;;;5076366;28;20200;-77
2024/02/09 07:12:04;;;;;;;5.63;5.23;;;11.10;99.90;;;;;;5086370;28;20663;-77
2024/02/09 07:14:32;;;;;;;5.30;5.00;;;11.10;99.90;;;;;;5083075;28;20215;-77
2024/02/09 07:16:59;;;;;;;6.33;5.60;;;11.10;99.90;;;;;;5084294;28;20237;-77
2024/02/09 07:19:26;;;;;;;5.80;5.30;;;11.20;99.90;;;;;;5090254;28;20743;-77
2024/02/09 07:21:53;;;;;;;5.60;5.10;;;11.20;99.90;;;;;;5071086;28;20272;-77
2024/02/09 07:24:21;;;;;;;5.90;5.33;;;11.30;99.90;;;;;;5090928;28;20224;-77
2024/02/09 07:26:48;;;;;;;6.00;5.50;;;11.30;99.90;;;;;;5072157;28;20215;-76
2024/02/09 07:29:14;;;;;;;5.97;5.57;;;11.30;99.90;;;;;;5085357;28;20275;-77
2024/02/09 07:31:43;;;;;;;5.67;5.27;;;11.30;99.90;;;;;;5081504;28;20216;-77
2024/02/09 07:34:12;;;;;;;5.40;4.90;;;11.40;99.90;;;;;;5085727;28;20228;-77
2024/02/09 07:36:39;;;;;;;4.90;4.50;;;11.30;99.90;;;;;;5072521;28;20203;-77
2024/02/09 07:39:07;;;;;;;4.93;4.40;;;11.40;99.90;;;;;;5088975;28;20297;-77
2024/02/09 07:41:35;;;;;;;4.70;4.20;;;11.40;99.90;;;;;;5091288;28;20275;-78
2024/02/09 07:44:03;;;;;;;5.10;4.70;;;11.40;99.90;;;;;;5079177;28;20315;-78
2024/02/09 07:46:31;;;;;;;5.60;5.10;;;11.50;99.90;;;;;;5089167;28;20192;-77
2024/02/09 07:48:59;;;;;;;5.77;5.00;;;11.50;99.90;;;;;;5085928;28;20204;-78
2024/02/09 07:51:27;;;;;;;5.00;4.60;;;11.60;99.90;;;;;;5081936;28;20224;-79
2024/02/09 07:53:53;;;;;;;5.30;4.90;;;11.60;99.90;;;;;;5086539;28;20239;-77
2024/02/09 07:56:20;;;;;;;8.43;7.83;;;11.60;99.90;;;;;;5089116;28;20284;-81
2024/02/09 07:58:47;;;;;;;4.97;4.50;;;11.60;99.90;;;;;;5084570;28;20209;-77
2024/02/09 08:01:13;;;;;;;4.90;4.50;;;11.70;99.90;;;;;;5088734;28;20246;-77
2024/02/09 08:03:40;;;;;;;5.20;4.80;;;11.70;99.90;;;;;;5083988;28;20731;-78
2024/02/09 08:06:08;;;;;;;4.47;4.17;;;11.70;99.90;;;;;;5081202;28;20568;-78
2024/02/09 08:08:35;;;;;;;4.43;4.13;;;11.80;99.90;;;;;;5082185;28;20201;-78
2024/02/09 08:11:02;;;;;;;5.33;4.93;;;12.00;99.90;;;;;;5081254;28;20214;-77
2024/02/09 08:13:29;;;;;;;12.13;11.43;;;12.10;99.90;;;;;;5081143;28;20232;-76
2024/02/09 08:15:56;;;;;;;11.90;11.10;;;12.20;99.90;;;;;;5083136;28;20223;-79
2024/02/09 08:18:23;;;;;;;11.87;11.00;;;12.30;99.90;;;;;;5075743;28;20194;-78
2024/02/09 08:20:50;;;;;;;10.77;9.97;;;12.40;99.90;;;;;;5070475;28;20195;-78
2024/02/09 08:23:18;;;;;;;11.00;10.30;;;12.50;99.90;;;;;;5078156;28;20217;-77
2024/02/09 08:25:45;;;;;;;10.20;9.50;;;12.60;99.90;;;;;;5081759;28;20217;-78
2024/02/09 08:28:11;;;;;;;9.33;8.73;;;12.80;99.90;;;;;;5082159;28;20255;-77
2024/02/09 08:30:38;;;;;;;12.10;11.30;;;12.90;99.90;;;;;;5073848;28;20221;-78
2024/02/09 08:33:05;;;;;;;12.30;11.50;;;13.00;99.90;;;;;;5077023;28;20292;-77
2024/02/09 08:35:32;;;;;;;9.00;8.40;;;13.10;99.90;;;;;;5074624;28;20199;-77
2024/02/09 08:37:59;;;;;;;12.37;11.57;;;13.20;99.90;;;;;;5077994;28;20218;-78
2024/02/09 08:40:27;;;;;;;11.77;11.07;;;13.30;99.90;;;;;;5084779;28;20252;-77
2024/02/09 08:42:54;;;;;;;11.27;10.67;;;13.40;99.90;;;;;;5084799;28;20209;-78
2024/02/09 08:45:20;;;;;;;11.77;10.97;;;13.60;99.90;;;;;;5078677;28;20661;-78
2024/02/09 08:47:47;;;;;;;12.07;11.30;;;13.70;99.90;;;;;;5082955;28;20649;-77
2024/02/09 08:50:14;;;;;;;11.80;11.10;;;13.80;99.90;;;;;;5079148;28;20202;-78
2024/02/09 08:52:42;;;;;;;10.93;10.30;;;13.90;99.90;;;;;;5073425;28;20232;-78
2024/02/09 08:55:09;;;;;;;11.63;10.93;;;14.00;99.90;;;;;;5077583;28;20569;-77
2024/02/09 08:57:37;;;;;;;12.20;11.20;;;14.10;99.90;;;;;;5089277;28;20673;-78
2024/02/09 09:00:05;;;;;;;11.77;11.07;;;14.30;99.90;;;;;;5083242;28;20201;-78
2024/02/09 09:02:32;;;;;;;11.53;10.83;;;14.40;99.90;;;;;;5084607;28;20226;-77
2024/02/09 09:04:59;;;;;;;11.30;10.70;;;14.40;99.90;;;;;;5073758;28;20230;-78
2024/02/09 09:07:26;;;;;;;10.97;10.27;;;14.40;99.90;;;;;;5080662;28;20566;-77
2024/02/09 09:09:52;;;;;;;10.80;10.20;;;14.50;99.90;;;;;;5081393;28;20210;-77
2024/02/09 09:12:20;;;;;;;11.30;10.60;;;14.50;99.90;;;;;;5073716;28;20219;-77
2024/02/09 09:14:48;;;;;;;11.20;10.50;;;14.60;99.90;;;;;;5081368;28;20200;-77
2024/02/09 09:17:16;;;;;;;10.70;10.00;;;14.60;99.90;;;;;;5082371;28;20204;-78
2024/02/09 09:19:43;;;;;;;8.50;8.00;;;14.60;99.90;;;;;;5078951;28;20256;-77
2024/02/09 09:22:09;;;;;;;10.87;10.27;;;14.70;99.90;;;;;;5079747;28;20696;-78
2024/02/09 09:24:36;;;;;;;11.23;10.30;;;14.70;99.90;;;;;;5089606;23;20321;-80
2024/02/09 09:27:04;;;;;;;8.83;8.23;;;14.80;99.90;;;;;;5013630;28;20229;-80
2024/02/09 09:29:32;;;;;;;9.10;8.40;;;14.80;99.90;;;;;;5020237;28;20210;-80
2024/02/09 09:32:00;;;;;;;8.60;8.00;;;14.70;99.90;;;;;;5038345;28;20215;-81
2024/02/09 09:34:27;;;;;;;3.93;3.50;;;14.80;99.90;;;;;;5027480;28;20229;-79
2024/02/09 09:36:54;;;;;;;7.83;7.17;;;14.80;99.90;;;;;;5033903;28;20207;-81
2024/02/09 09:39:21;;;;;;;10.03;9.23;;;14.80;99.90;;;;;;5033210;28;20233;-80
2024/02/09 09:41:53;;;;;;;10.90;10.30;;;14.80;99.90;;;;;;5035477;28;20240;-81
2024/02/09 09:44:21;;;;;;;11.27;10.50;;;14.80;99.90;;;;;;5022594;28;20204;-81
2024/02/09 09:46:49;;;;;;;11.37;10.57;;;14.90;99.90;;;;;;5032611;28;20206;-79
2024/02/09 09:49:18;;;;;;;10.90;10.20;;;14.80;99.90;;;;;;5022449;28;20215;-81
2024/02/09 09:51:50;;;;;;;10.30;9.60;;;14.90;99.90;;;;;;5030809;28;20221;-79
2024/02/09 09:54:21;;;;;;;10.73;10.13;;;14.80;99.90;;;;;;5031332;28;20203;-81
2024/02/09 09:56:49;;;;;;;10.67;10.07;;;14.80;99.90;;;;;;5015925;28;20213;-80
2024/02/09 09:59:16;;;;;;;10.37;9.70;;;14.70;99.90;;;;;;5029504;28;20593;-79
2024/02/09 10:01:43;;;;;;;10.70;10.10;;;14.70;99.90;;;;;;5028215;28;20183;-79
2024/02/09 10:04:09;;;;;;;10.57;9.97;;;14.70;99.90;;;;;;5029188;28;20199;-79
2024/02/09 10:06:38;;;;;;;10.50;9.90;;;14.70;99.90;;;;;;5035098;28;20289;-79
2024/02/09 10:09:08;;;;;;;10.87;10.20;;;14.80;99.90;;;;;;5031476;28;20258;-82
2024/02/09 10:11:48;;;;;;;10.70;10.10;;;14.90;99.90;;;;;;5037505;28;20210;-81
2024/02/09 10:14:16;;;;;;;10.50;9.70;;;14.90;99.90;;;;;;5029545;28;20214;-80
2024/02/09 10:16:44;;;;;;;9.70;9.10;;;14.90;99.90;;;;;;5028949;28;20233;-81
2024/02/09 10:19:13;;;;;;;11.23;10.50;;;14.90;99.90;;;;;;5033773;28;20210;-82
2024/02/09 10:21:41;;;;;;;10.90;10.20;;;14.90;99.90;;;;;;5057717;28;20197;-81
2024/02/09 10:24:10;;;;;;;10.40;9.80;;;14.90;99.90;;;;;;5054149;28;20201;-79
2024/02/09 10:26:37;;;;;;;10.50;9.80;;;14.90;99.90;;;;;;5030217;28;20301;-79
2024/02/09 10:29:04;;;;;;;10.70;10.00;;;14.90;99.90;;;;;;5034153;28;20205;-80
2024/02/09 10:31:31;;;;;;;10.63;10.03;;;14.90;99.90;;;;;;5016452;28;20227;-79
2024/02/09 10:33:58;;;;;;;11.00;10.30;;;14.90;99.90;;;;;;5024688;28;20200;-77
2024/02/09 10:36:25;;;;;;;11.30;10.47;;;14.90;99.90;;;;;;5015205;28;20223;-79
2024/02/09 10:38:55;;;;;;;10.93;10.33;;;14.90;99.90;;;;;;5030586;28;20280;-81
2024/02/09 10:41:25;;;;;;;10.60;10.00;;;15.00;99.90;;;;;;5026449;28;20284;-81
2024/02/09 10:43:58;;;;;;;10.40;9.80;;;15.00;99.90;;;;;;5017409;28;20253;-79
2024/02/09 10:46:28;;;;;;;10.57;9.87;;;15.00;99.90;;;;;;5025331;28;20218;-77
2024/02/09 10:48:58;;;;;;;10.33;9.73;;;15.10;99.90;;;;;;5028577;28;20191;-79
2024/02/09 10:51:30;;;;;;;10.63;10.03;;;15.10;99.90;;;;;;5033466;28;20224;-79
2024/02/09 10:54:07;;;;;;;10.90;10.20;;;15.20;99.90;;;;;;5028657;28;20219;-81
2024/02/09 10:56:36;;;;;;;11.00;10.20;;;15.30;99.90;;;;;;5020236;28;20204;-80
2024/02/09 10:59:05;;;;;;;10.77;10.07;;;15.40;99.90;;;;;;5015073;28;20647;-80
2024/02/09 11:01:33;;;;;;;10.70;9.90;;;15.40;99.90;;;;;;5026925;28;20199;-80
2024/02/09 11:04:01;;;;;;;9.10;8.50;;;15.50;99.90;;;;;;5022866;28;20195;-79
2024/02/09 11:06:28;;;;;;;10.20;9.50;;;15.40;99.90;;;;;;5033150;28;20220;-79
2024/02/09 11:08:57;;;;;;;11.30;10.70;;;15.40;99.90;;;;;;5015650;28;20200;-79
2024/02/09 11:11:28;;;;;;;11.70;11.00;;;15.40;99.90;;;;;;5013887;28;20212;-78
2024/02/09 11:14:05;;;;;;;12.10;11.30;;;15.40;99.90;;;;;;5014935;28;20655;-79
2024/02/09 11:16:39;;;;;;;11.83;11.03;;;15.40;99.90;;;;;;5021919;28;20198;-79
2024/02/09 11:19:12;;;;;;;11.67;11.00;;;15.40;99.90;;;;;;5020048;28;20200;-77
2024/02/09 11:21:39;;;;;;;11.33;10.60;;;15.40;99.90;;;;;;5029018;28;20203;-78
2024/02/09 11:24:09;;;;;;;11.37;10.57;;;15.50;99.90;;;;;;5021269;28;20198;-78
2024/02/09 11:26:37;;;;;;;10.30;9.67;;;15.50;99.90;;;;;;5029657;28;20207;-79
2024/02/09 11:29:04;;;;;;;12.00;11.20;;;15.60;99.90;;;;;;5027513;28;20293;-77
2024/02/09 11:31:32;;;;;;;11.80;11.00;;;15.70;99.90;;;;;;5030230;28;20204;-76
2024/02/09 11:34:00;;;;;;;9.27;8.70;;;15.70;99.90;;;;;;5019513;28;20235;-78
2024/02/09 11:36:28;;;;;;;8.37;7.87;;;15.80;99.90;;;;;;5025064;28;20231;-78
2024/02/09 11:38:57;;;;;;;8.70;8.10;;;15.80;99.90;;;;;;5019452;28;20519;-77
2024/02/09 11:41:28;;;;;;;7.97;7.47;;;15.80;99.90;;;;;;5035775;28;20203;-77
2024/02/09 11:43:55;;;;;;;9.33;8.73;;;15.80;99.90;;;;;;5037732;28;20199;-77
2024/02/09 11:46:22;;;;;;;9.77;9.10;;;15.70;99.90;;;;;;5036048;28;20730;-79
2024/02/09 11:48:50;;;;;;;10.73;9.83;;;15.60;99.90;;;;;;5039422;28;20196;-77
2024/02/09 11:51:21;;;;;;;11.30;10.50;;;15.60;99.90;;;;;;5029795;28;20209;-78
2024/02/09 11:53:50;;;;;;;10.70;10.05;;;15.50;99.90;;;;;;5021329;28;20451;-79
2024/02/09 11:56:17;;;;;;;10.80;10.10;;;15.40;99.90;;;;;;5021968;28;20223;-78
2024/02/09 11:58:49;;;;;;;12.50;11.60;;;15.40;99.90;;;;;;5031679;28;20546;-77
2024/02/09 12:01:17;;;;;;;11.67;10.97;;;15.40;99.90;;;;;;5027137;28;20193;-78
2024/02/09 12:03:44;;;;;;;9.17;8.47;;;15.30;99.90;;;;;;5032977;28;20199;-79
2024/02/09 12:06:12;;;;;;;11.50;10.70;;;15.30;99.90;;;;;;5029951;28;20585;-78
2024/02/09 12:08:39;;;;;;;10.83;10.23;;;15.20;99.90;;;;;;5025805;28;20202;-78
2024/02/09 12:11:06;;;;;;;11.10;10.40;;;15.20;99.90;;;;;;5029591;28;20199;-78
2024/02/09 12:13:33;;;;;;;10.97;10.17;;;15.10;99.90;;;;;;5026531;28;20772;-77
2024/02/09 12:16:02;;;;;;;11.30;10.60;;;14.90;99.90;;;;;;5027836;28;20663;-78
2024/02/09 12:18:29;;;;;;;11.43;10.60;;;14.90;99.90;;;;;;5036073;28;20215;-78
2024/02/09 12:20:56;;;;;;;10.97;10.33;;;14.80;99.90;;;;;;5023240;28;20200;-76
2024/02/09 12:23:24;;;;;;;11.40;10.70;;;14.90;99.90;;;;;;5017433;28;20208;-77
2024/02/09 12:25:52;;;;;;;11.20;10.40;;;14.80;99.90;;;;;;5017322;28;20227;-78
2024/02/09 12:28:23;;;;;;;11.30;10.50;;;14.70;99.90;;;;;;5035284;28;20204;-77
2024/02/09 12:30:51;;;;;;;10.90;10.30;;;14.50;99.90;;;;;;5024784;28;20210;-83
2024/02/09 12:33:22;;;;;;;11.43;10.83;;;14.30;99.90;;;;;;5040660;28;20644;-78
2024/02/09 12:35:49;;;;;;;10.67;9.97;;;14.20;99.90;;;;;;5025498;28;20233;-79
2024/02/09 12:38:17;;;;;;;10.80;10.20;;;14.10;99.90;;;;;;5025908;28;20202;-76
2024/02/09 12:40:45;;;;;;;11.27;10.57;;;14.10;99.90;;;;;;5028178;28;20699;-78
2024/02/09 12:43:13;;;;;;;10.40;9.80;;;14.00;99.90;;;;;;5028700;28;20666;-77
2024/02/09 12:45:40;;;;;;;11.20;10.40;;;14.00;99.90;;;;;;5035377;28;20303;-79
2024/02/09 12:48:07;;;;;;;10.80;10.10;;;14.00;99.90;;;;;;5018837;28;20645;-77
2024/02/09 12:50:37;;;;;;;10.50;9.90;;;14.00;99.90;;;;;;5017549;28;20208;-77
2024/02/09 12:53:04;;;;;;;10.80;10.10;;;14.00;99.90;;;;;;5025507;28;20217;-77
2024/02/09 12:55:32;;;;;;;10.90;10.20;;;14.00;99.90;;;;;;5040928;28;20233;-77
2024/02/09 12:57:59;;;;;;;10.60;9.90;;;14.00;99.90;;;;;;5038162;28;20207;-77
2024/02/09 13:00:26;;;;;;;10.53;9.83;;;14.00;99.90;;;;;;5025967;28;20202;-77
2024/02/09 13:02:54;;;;;;;10.13;9.53;;;13.90;99.90;;;;;;5027517;28;20622;-77
2024/02/09 13:05:21;;;;;;;10.30;9.60;;;14.00;99.90;;;;;;5021631;28;20225;-76
2024/02/09 13:07:51;;;;;;;10.67;10.00;;;14.00;99.90;;;;;;5027676;28;20647;-77
2024/02/09 13:10:18;;;;;;;11.00;10.30;;;14.00;99.90;;;;;;5027042;28;20200;-77
2024/02/09 13:12:45;;;;;;;11.07;10.37;;;14.10;99.90;;;;;;5026840;28;20287;-77
2024/02/09 13:15:12;;;;;;;10.67;9.87;;;14.10;99.90;;;;;;5024258;28;20261;-77
2024/02/09 13:17:39;;;;;;;10.90;10.30;;;14.10;99.90;;;;;;5027668;28;20206;-76
2024/02/09 13:20:08;;;;;;;11.10;10.40;;;14.20;99.90;;;;;;5033585;28;20241;-77
2024/02/09 13:22:37;;;;;;;10.70;10.00;;;14.20;99.90;;;;;;5029629;28;20195;-77
2024/02/09 13:25:06;;;;;;;10.70;10.10;;;14.30;99.90;;;;;;5031291;28;20810;-77
2024/02/09 13:27:33;;;;;;;10.40;9.80;;;14.30;99.90;;;;;;5029858;28;20203;-77
2024/02/09 13:29:59;;;;;;;10.40;9.73;;;14.40;99.90;;;;;;5028284;28;21265;-77
2024/02/09 13:32:27;;;;;;;10.50;9.90;;;14.40;99.90;;;;;;5017164;28;20217;-77
2024/02/09 13:34:54;;;;;;;10.77;10.17;;;14.40;99.90;;;;;;5021422;28;20646;-77
2024/02/09 13:37:22;;;;;;;10.80;10.20;;;14.40;99.90;;;;;;5024483;28;20291;-77
2024/02/09 13:39:51;;;;;;;11.07;10.37;;;14.40;99.90;;;;;;5015192;28;20210;-77
2024/02/09 13:42:21;;;;;;;10.90;10.30;;;14.50;99.90;;;;;;5027857;28;20214;-77
2024/02/09 13:44:48;;;;;;;10.33;9.80;;;14.40;99.90;;;;;;5023246;28;20600;-77
2024/02/09 13:47:15;;;;;;;10.40;9.80;;;14.40;99.90;;;;;;5018259;28;20262;-77
2024/02/09 13:49:41;;;;;;;10.20;9.60;;;14.40;99.90;;;;;;5025489;28;20241;-76
2024/02/09 13:52:08;;;;;;;10.70;10.00;;;14.40;99.90;;;;;;5033130;28;20248;-77
2024/02/09 13:54:35;;;;;;;10.70;10.10;;;14.40;99.90;;;;;;5026905;28;20232;-77
2024/02/09 13:57:02;;;;;;;11.10;10.40;;;14.30;99.90;;;;;;5025920;28;20235;-77
2024/02/09 13:59:30;;;;;;;11.03;10.43;;;14.30;99.90;;;;;;5021770;28;20230;-77
2024/02/09 14:01:56;;;;;;;11.03;10.43;;;14.30;99.90;;;;;;5024152;28;20199;-77
2024/02/09 14:04:25;;;;;;;10.60;9.97;;;14.30;99.90;;;;;;5027291;28;20253;-77
2024/02/09 14:06:52;;;;;;;10.47;9.83;;;14.30;99.90;;;;;;5024723;28;20198;-77
2024/02/09 14:09:19;;;;;;;10.73;10.13;;;14.30;99.90;;;;;;5025355;28;20206;-77
2024/02/09 14:11:47;;;;;;;10.50;9.90;;;14.30;99.90;;;;;;5025097;28;20205;-77
2024/02/09 14:14:13;;;;;;;10.60;10.00;;;14.30;99.90;;;;;;5029199;28;20234;-77
2024/02/09 14:16:41;;;;;;;10.73;10.03;;;14.30;99.90;;;;;;5033457;28;20463;-77
2024/02/09 14:19:10;;;;;;;10.67;10.03;;;14.30;99.90;;;;;;5032092;28;20697;-77
2024/02/09 14:21:37;;;;;;;10.80;10.20;;;14.30;99.90;;;;;;5026647;28;20738;-77
2024/02/09 14:24:04;;;;;;;11.10;10.30;;;14.30;99.90;;;;;;5033430;28;20230;-77
2024/02/09 14:26:30;;;;;;;10.73;10.03;;;14.40;99.90;;;;;;5027774;28;20581;-77
2024/02/09 14:28:59;;;;;;;10.90;10.30;;;14.40;99.90;;;;;;5016493;28;20663;-81
2024/02/09 14:31:26;;;;;;;11.17;10.47;;;14.30;99.90;;;;;;5029449;28;20641;-78